createdAt,value
2023-05-24T00:00:33.358Z,13.59
2023-05-24T00:01:34.917Z,13.55
2023-05-24T00:02:38.403Z,13.67
2023-05-24T00:03:40.106Z,13.57
2023-05-24T00:04:42.490Z,13.64
2023-05-24T00:05:46.829Z,13.66
2023-05-24T00:06:48.614Z,13.61
2023-05-24T00:07:50.875Z,13.68
2023-05-24T00:08:53.162Z,13.87
2023-05-24T00:09:54.812Z,13.95
2023-05-24T00:11:16.747Z,13.96
2023-05-24T00:12:18.350Z,13.92
2023-05-24T00:13:19.978Z,13.82
2023-05-24T00:14:21.870Z,13.73
2023-05-24T00:15:23.500Z,13.67
2023-05-24T00:16:25.129Z,13.62
2023-05-24T00:17:27.629Z,13.83
2023-05-24T00:18:31.334Z,13.89
2023-05-24T00:19:32.800Z,13.80
2023-05-24T00:20:34.397Z,13.76
2023-05-24T00:21:36.811Z,13.82
2023-05-24T00:22:39.089Z,13.81
2023-05-24T00:23:42.064Z,13.74
2023-05-24T00:24:43.546Z,13.66
2023-05-24T00:25:45.034Z,13.51
2023-05-24T00:26:46.582Z,13.55
2023-05-24T00:27:48.118Z,13.56
2023-05-24T00:28:49.640Z,13.62
2023-05-24T00:29:51.124Z,13.75
2023-05-24T00:30:52.698Z,13.81
2023-05-24T00:31:54.224Z,13.60
2023-05-24T00:32:55.915Z,13.48
2023-05-24T00:33:57.604Z,13.50
2023-05-24T00:34:59.274Z,13.36
2023-05-24T00:36:00.814Z,13.35
2023-05-24T00:37:02.391Z,13.31
2023-05-24T00:38:03.902Z,13.34
2023-05-24T00:39:05.942Z,13.32
2023-05-24T00:40:08.878Z,13.32
2023-05-24T00:41:11.570Z,13.27
2023-05-24T00:42:13.118Z,13.16
2023-05-24T00:43:14.790Z,13.16
2023-05-24T00:44:16.276Z,13.06
2023-05-24T00:45:17.886Z,13.11
2023-05-24T00:46:23.018Z,13.18
2023-05-24T00:47:24.617Z,13.15
2023-05-24T00:48:28.856Z,13.10
2023-05-24T00:49:31.448Z,13.06
2023-05-24T00:50:33.702Z,13.10
2023-05-24T00:51:36.684Z,13.15
2023-05-24T00:52:38.107Z,13.12
2023-05-24T00:53:41.455Z,13.35
2023-05-24T00:54:44.094Z,13.32
2023-05-24T00:55:45.717Z,13.30
2023-05-24T00:56:48.498Z,13.21
2023-05-24T00:57:52.428Z,13.17
2023-05-24T00:58:56.681Z,13.14
2023-05-24T00:59:59.660Z,13.11
2023-05-24T01:01:02.941Z,13.10
2023-05-24T01:02:04.777Z,13.19
2023-05-24T01:03:06.509Z,13.12
2023-05-24T01:04:08.301Z,13.18
2023-05-24T01:05:13.687Z,13.24
2023-05-24T01:06:16.293Z,13.45
2023-05-24T01:07:41.752Z,13.28
2023-05-24T01:09:25.921Z,13.16
2023-05-24T01:10:45.448Z,13.20
2023-05-24T01:12:11.695Z,13.12
2023-05-24T01:13:26.233Z,13.08
2023-05-24T01:14:38.890Z,13.02
2023-05-24T01:16:00.093Z,13.22
2023-05-24T01:17:06.756Z,13.22
2023-05-24T01:18:31.893Z,13.26
2023-05-24T01:19:43.237Z,13.29
2023-05-24T01:20:46.948Z,13.24
2023-05-24T01:22:09.242Z,13.36
2023-05-24T01:23:27.883Z,13.42
2023-05-24T01:24:53.892Z,13.48
2023-05-24T01:26:03.657Z,13.38
2023-05-24T01:27:12.221Z,13.22
2023-05-24T01:28:16.361Z,13.09
2023-05-24T01:29:18.200Z,13.25
2023-05-24T01:30:20.654Z,13.27
2023-05-24T01:31:23.244Z,13.24
2023-05-24T01:32:24.938Z,13.23
2023-05-24T01:33:27.158Z,13.22
2023-05-24T01:34:29.052Z,13.15
2023-05-24T01:35:30.609Z,13.13
2023-05-24T01:36:32.190Z,13.19
2023-05-24T01:37:33.724Z,13.16
2023-05-24T01:38:35.671Z,13.40
2023-05-24T01:39:37.378Z,13.49
2023-05-24T01:40:41.112Z,13.46
2023-05-24T01:41:59.657Z,13.33
2023-05-24T01:43:07.817Z,13.44
2023-05-24T01:44:59.231Z,13.25
2023-05-24T01:46:08.605Z,13.26
2023-05-24T01:47:41.411Z,13.14
2023-05-24T01:48:42.947Z,13.26
2023-05-24T01:49:50.682Z,13.29
2023-05-24T01:50:57.039Z,13.17
2023-05-24T01:52:16.120Z,13.21
2023-05-24T01:53:19.979Z,13.36
2023-05-24T01:54:24.756Z,13.27
2023-05-24T01:55:27.437Z,13.23
2023-05-24T01:56:29.307Z,13.25
2023-05-24T01:57:34.345Z,13.16
2023-05-24T01:58:37.635Z,13.15
2023-05-24T01:59:43.368Z,13.05
2023-05-24T02:00:45.695Z,13.00
2023-05-24T02:01:48.261Z,13.16
2023-05-24T02:02:50.439Z,13.21
2023-05-24T02:03:52.427Z,13.26
2023-05-24T02:04:54.417Z,13.27
2023-05-24T02:05:55.896Z,13.11
2023-05-24T02:06:57.690Z,13.14
2023-05-24T02:07:59.399Z,13.28
2023-05-24T02:09:01.378Z,13.20
2023-05-24T02:10:03.245Z,13.18
2023-05-24T02:11:04.780Z,13.30
2023-05-24T02:12:07.241Z,13.33
2023-05-24T02:13:09.205Z,13.39
2023-05-24T02:14:11.298Z,13.27
2023-05-24T02:15:14.819Z,13.32
2023-05-24T02:16:18.169Z,13.29
2023-05-24T02:17:19.853Z,13.24
2023-05-24T02:18:22.608Z,13.26
2023-05-24T02:19:24.920Z,13.18
2023-05-24T02:20:26.508Z,13.18
2023-05-24T02:21:28.850Z,13.09
2023-05-24T02:22:30.372Z,13.00
2023-05-24T02:23:31.899Z,13.12
2023-05-24T02:24:33.414Z,13.10
2023-05-24T02:25:34.901Z,12.97
2023-05-24T02:26:36.711Z,12.90
2023-05-24T02:27:38.219Z,12.81
2023-05-24T02:28:39.737Z,12.74
2023-05-24T02:29:41.974Z,12.83
2023-05-24T02:30:44.845Z,12.89
2023-05-24T02:31:46.965Z,13.12
2023-05-24T02:32:48.497Z,13.12
2023-05-24T02:33:50.017Z,13.21
2023-05-24T02:34:51.627Z,13.05
2023-05-24T02:35:53.269Z,13.08
2023-05-24T02:36:56.219Z,13.01
2023-05-24T02:37:58.760Z,13.01
2023-05-24T02:39:00.739Z,12.88
2023-05-24T02:40:02.345Z,12.75
2023-05-24T02:41:03.858Z,12.83
2023-05-24T02:42:06.229Z,12.87
2023-05-24T02:43:09.631Z,12.91
2023-05-24T02:44:11.769Z,13.04
2023-05-24T02:45:13.225Z,13.04
2023-05-24T02:46:15.277Z,13.03
2023-05-24T02:47:16.800Z,13.11
2023-05-24T02:48:18.258Z,13.03
2023-05-24T02:49:19.763Z,12.87
2023-05-24T02:50:21.253Z,12.84
2023-05-24T02:51:23.034Z,12.74
2023-05-24T02:52:24.934Z,12.70
2023-05-24T02:53:26.425Z,12.91
2023-05-24T02:54:27.949Z,13.04
2023-05-24T02:55:29.791Z,13.02
2023-05-24T02:56:31.724Z,12.94
2023-05-24T02:57:34.336Z,12.84
2023-05-24T02:58:40.539Z,12.88
2023-05-24T02:59:42.789Z,12.95
2023-05-24T03:00:44.384Z,13.10
2023-05-24T03:01:46.288Z,13.16
2023-05-24T03:02:48.132Z,13.02
2023-05-24T03:03:49.924Z,12.93
2023-05-24T03:04:51.449Z,12.92
2023-05-24T03:05:52.964Z,13.00
2023-05-24T03:06:54.788Z,12.82
2023-05-24T03:07:56.767Z,12.82
2023-05-24T03:08:59.229Z,12.74
2023-05-24T03:10:00.728Z,12.79
2023-05-24T03:11:02.220Z,12.88
2023-05-24T03:12:03.928Z,12.84
2023-05-24T03:13:05.635Z,12.71
2023-05-24T03:14:07.169Z,12.61
2023-05-24T03:15:09.484Z,12.59
2023-05-24T03:16:11.009Z,12.54
2023-05-24T03:17:12.533Z,12.63
2023-05-24T03:18:14.044Z,12.66
2023-05-24T03:19:17.338Z,12.76
2023-05-24T03:20:21.097Z,12.74
2023-05-24T03:21:23.851Z,12.74
2023-05-24T03:22:25.383Z,12.74
2023-05-24T03:23:26.943Z,12.71
2023-05-24T03:24:28.489Z,12.55
2023-05-24T03:25:29.932Z,12.55
2023-05-24T03:26:31.927Z,12.60
2023-05-24T03:27:33.418Z,12.69
2023-05-24T03:28:35.748Z,12.64
2023-05-24T03:29:37.481Z,12.48
2023-05-24T03:30:39.265Z,12.38
2023-05-24T03:31:40.883Z,12.33
2023-05-24T03:32:42.452Z,12.53
2023-05-24T03:33:44.095Z,12.55
2023-05-24T03:34:45.749Z,12.62
2023-05-24T03:35:47.558Z,12.62
2023-05-24T03:36:49.081Z,12.59
2023-05-24T03:37:50.871Z,12.63
2023-05-24T03:38:52.414Z,12.57
2023-05-24T03:39:54.477Z,12.70
2023-05-24T03:40:56.522Z,12.64
2023-05-24T03:41:58.030Z,12.72
2023-05-24T03:43:00.669Z,12.74
2023-05-24T03:44:02.348Z,12.62
2023-05-24T03:45:05.299Z,12.58
2023-05-24T03:46:07.132Z,12.60
2023-05-24T03:47:08.701Z,12.36
2023-05-24T03:48:10.428Z,12.32
2023-05-24T03:49:12.094Z,12.33
2023-05-24T03:50:14.381Z,12.20
2023-05-24T03:51:15.917Z,12.15
2023-05-24T03:52:17.390Z,12.19
2023-05-24T03:53:20.946Z,12.24
2023-05-24T03:54:24.429Z,12.33
2023-05-24T03:55:26.027Z,12.27
2023-05-24T03:56:27.646Z,12.16
2023-05-24T03:57:29.312Z,12.13
2023-05-24T03:58:31.110Z,12.27
2023-05-24T03:59:32.803Z,12.43
2023-05-24T04:00:34.426Z,12.42
2023-05-24T04:01:38.719Z,12.42
2023-05-24T04:02:40.327Z,12.40
2023-05-24T04:03:41.929Z,12.46
2023-05-24T04:04:43.529Z,12.49
2023-05-24T04:05:45.418Z,12.50
2023-05-24T04:06:47.947Z,12.57
2023-05-24T04:07:49.628Z,12.57
2023-05-24T04:08:52.732Z,12.47
2023-05-24T04:09:54.290Z,12.53
2023-05-24T04:10:55.974Z,12.58
2023-05-24T04:11:57.466Z,12.60
2023-05-24T04:13:00.706Z,12.52
2023-05-24T04:14:02.865Z,12.38
2023-05-24T04:15:04.777Z,12.41
2023-05-24T04:16:06.291Z,12.43
2023-05-24T04:17:08.489Z,12.46
2023-05-24T04:18:10.298Z,12.60
2023-05-24T04:19:11.936Z,12.55
2023-05-24T04:20:13.477Z,12.63
2023-05-24T04:21:15.938Z,12.71
2023-05-24T04:22:18.640Z,12.73
2023-05-24T04:23:20.127Z,12.54
2023-05-24T04:24:21.641Z,12.35
2023-05-24T04:25:23.749Z,12.38
2023-05-24T04:26:25.218Z,12.37
2023-05-24T04:27:27.037Z,12.24
2023-05-24T04:28:28.885Z,12.28
2023-05-24T04:29:33.300Z,12.25
2023-05-24T04:30:36.091Z,12.13
2023-05-24T04:31:37.717Z,12.24
2023-05-24T04:32:40.623Z,12.21
2023-05-24T04:33:42.380Z,12.19
2023-05-24T04:34:46.005Z,12.32
2023-05-24T04:35:47.817Z,12.47
2023-05-24T04:36:50.610Z,12.57
2023-05-24T04:37:52.586Z,12.40
2023-05-24T04:38:56.137Z,12.44
2023-05-24T04:39:57.850Z,12.50
2023-05-24T04:40:59.511Z,12.56
2023-05-24T04:42:00.983Z,12.52
2023-05-24T04:43:02.509Z,12.67
2023-05-24T04:44:04.260Z,12.59
2023-05-24T04:45:07.097Z,12.55
2023-05-24T04:46:09.444Z,12.56
2023-05-24T04:47:12.949Z,12.61
2023-05-24T04:48:14.403Z,12.61
2023-05-24T04:49:16.082Z,12.56
2023-05-24T04:50:17.998Z,12.60
2023-05-24T04:51:19.913Z,12.56
2023-05-24T04:52:21.503Z,12.44
2023-05-24T04:53:23.661Z,12.23
2023-05-24T04:54:25.154Z,12.21
2023-05-24T04:55:26.677Z,12.15
2023-05-24T04:56:28.584Z,12.20
2023-05-24T04:57:30.334Z,12.23
2023-05-24T04:58:31.913Z,12.36
2023-05-24T04:59:33.460Z,12.38
2023-05-24T05:00:35.041Z,12.33
2023-05-24T05:01:36.749Z,12.32
2023-05-24T05:02:38.421Z,12.30
2023-05-24T05:03:40.163Z,12.33
2023-05-24T05:04:41.798Z,12.36
2023-05-24T05:05:43.373Z,12.40
2023-05-24T05:06:44.986Z,12.48
2023-05-24T05:07:46.586Z,12.49
2023-05-24T05:08:50.662Z,12.36
2023-05-24T05:09:52.499Z,12.33
2023-05-24T05:10:54.122Z,12.34
2023-05-24T05:11:55.649Z,12.25
2023-05-24T05:12:57.447Z,12.33
2023-05-24T05:13:59.464Z,12.55
2023-05-24T05:15:01.023Z,12.66
2023-05-24T05:16:02.868Z,12.65
2023-05-24T05:17:04.567Z,12.55
2023-05-24T05:18:06.074Z,12.59
2023-05-24T05:19:07.798Z,12.48
2023-05-24T05:20:10.032Z,12.49
2023-05-24T05:21:11.692Z,12.49
2023-05-24T05:22:13.470Z,12.50
2023-05-24T05:23:17.057Z,12.50
2023-05-24T05:24:28.674Z,12.39
2023-05-24T05:25:42.823Z,12.48
2023-05-24T05:27:19.655Z,12.67
2023-05-24T05:28:30.187Z,12.62
2023-05-24T05:29:31.963Z,12.70
2023-05-24T05:30:33.527Z,12.61
2023-05-24T05:31:35.175Z,12.61
2023-05-24T05:32:38.206Z,12.61
2023-05-24T05:33:39.777Z,12.73
2023-05-24T05:34:41.689Z,12.72
2023-05-24T05:35:43.148Z,12.60
2023-05-24T05:36:44.618Z,12.57
2023-05-24T05:37:46.466Z,12.62
2023-05-24T05:38:47.925Z,12.57
2023-05-24T05:39:49.399Z,12.50
2023-05-24T05:40:50.866Z,12.45
2023-05-24T05:41:52.396Z,12.54
2023-05-24T05:42:53.990Z,12.51
2023-05-24T05:43:55.636Z,12.28
2023-05-24T05:44:57.465Z,12.37
2023-05-24T05:46:00.650Z,12.24
2023-05-24T05:47:03.893Z,12.38
2023-05-24T05:48:05.581Z,12.45
2023-05-24T05:49:07.492Z,12.39
2023-05-24T05:50:09.610Z,12.41
2023-05-24T05:51:11.314Z,12.58
2023-05-24T05:52:12.896Z,12.63
2023-05-24T05:53:15.974Z,12.72
2023-05-24T05:54:18.776Z,12.83
2023-05-24T05:55:20.457Z,12.76
2023-05-24T05:56:21.920Z,12.82
2023-05-24T05:57:24.442Z,12.84
2023-05-24T05:58:26.138Z,12.81
2023-05-24T05:59:27.620Z,12.68
2023-05-24T06:00:29.092Z,12.59
2023-05-24T06:01:30.561Z,12.69
2023-05-24T06:02:32.122Z,12.73
2023-05-24T06:03:33.833Z,12.72
2023-05-24T06:04:35.497Z,12.73
2023-05-24T06:05:37.021Z,12.67
2023-05-24T06:06:38.600Z,12.71
2023-05-24T06:07:40.116Z,12.82
2023-05-24T06:08:41.842Z,12.92
2023-05-24T06:09:43.337Z,12.93
2023-05-24T06:10:45.517Z,12.81
2023-05-24T06:11:47.175Z,12.69
2023-05-24T06:12:48.690Z,12.59
2023-05-24T06:13:50.171Z,12.48
2023-05-24T06:14:52.452Z,12.51
2023-05-24T06:15:54.681Z,12.54
2023-05-24T06:16:58.081Z,12.72
2023-05-24T06:18:02.288Z,12.77
2023-05-24T06:19:06.672Z,12.66
2023-05-24T06:20:15.564Z,12.55
2023-05-24T06:21:17.681Z,12.48
2023-05-24T06:22:19.857Z,12.55
2023-05-24T06:23:21.724Z,12.70
2023-05-24T06:24:23.417Z,12.66
2023-05-24T06:25:24.952Z,12.67
2023-05-24T06:26:27.127Z,12.81
2023-05-24T06:27:28.623Z,12.89
2023-05-24T06:28:30.133Z,12.77
2023-05-24T06:29:32.158Z,12.72
2023-05-24T06:30:33.822Z,12.75
2023-05-24T06:31:35.566Z,12.88
2023-05-24T06:32:37.324Z,12.83
2023-05-24T06:33:39.856Z,12.75
2023-05-24T06:34:44.850Z,12.67
2023-05-24T06:35:46.418Z,12.63
2023-05-24T06:36:48.579Z,12.52
2023-05-24T06:37:50.130Z,12.50
2023-05-24T06:38:51.665Z,12.43
2023-05-24T06:39:53.141Z,12.51
2023-05-24T06:40:54.659Z,12.61
2023-05-24T06:41:56.255Z,12.75
2023-05-24T06:42:58.737Z,12.65
2023-05-24T06:44:00.607Z,12.54
2023-05-24T06:45:02.304Z,12.62
2023-05-24T06:46:03.839Z,12.62
2023-05-24T06:47:06.093Z,12.67
2023-05-24T06:48:08.267Z,12.70
2023-05-24T06:49:10.276Z,12.63
2023-05-24T06:50:11.845Z,12.55
2023-05-24T06:51:13.331Z,12.47
2023-05-24T06:52:14.831Z,12.55
2023-05-24T06:53:16.329Z,12.55
2023-05-24T06:54:21.275Z,12.60
2023-05-24T06:55:23.050Z,12.46
2023-05-24T06:56:24.506Z,12.41
2023-05-24T06:57:27.088Z,12.44
2023-05-24T06:58:28.887Z,12.61
2023-05-24T06:59:30.769Z,12.72
2023-05-24T07:00:32.475Z,12.55
2023-05-24T07:01:34.070Z,12.60
2023-05-24T07:02:35.646Z,12.60
2023-05-24T07:03:37.347Z,12.74
2023-05-24T07:04:41.240Z,12.79
2023-05-24T07:05:42.912Z,12.76
2023-05-24T07:06:45.920Z,12.70
2023-05-24T07:07:48.077Z,12.78
2023-05-24T07:09:00.903Z,12.82
2023-05-24T07:10:02.598Z,12.76
2023-05-24T07:11:04.601Z,12.84
2023-05-24T07:12:09.406Z,12.90
2023-05-24T07:13:20.923Z,12.98
2023-05-24T07:14:26.443Z,13.08
2023-05-24T07:15:28.500Z,13.15
2023-05-24T07:16:31.719Z,13.03
2023-05-24T07:17:33.385Z,13.21
2023-05-24T07:18:35.013Z,13.18
2023-05-24T07:19:36.779Z,13.21
2023-05-24T07:20:38.647Z,13.23
2023-05-24T07:21:40.306Z,13.24
2023-05-24T07:22:41.833Z,13.21
2023-05-24T07:23:43.694Z,13.06
2023-05-24T07:24:45.308Z,12.90
2023-05-24T07:25:46.794Z,12.87
2023-05-24T07:26:49.156Z,13.04
2023-05-24T07:27:51.438Z,13.18
2023-05-24T07:28:53.385Z,13.11
2023-05-24T07:29:54.926Z,13.13
2023-05-24T07:30:59.218Z,13.15
2023-05-24T07:32:01.070Z,13.07
2023-05-24T07:33:03.128Z,13.00
2023-05-24T07:34:04.664Z,13.02
2023-05-24T07:35:06.754Z,13.15
2023-05-24T07:36:09.052Z,13.13
2023-05-24T07:37:10.551Z,13.26
2023-05-24T07:38:12.960Z,13.30
2023-05-24T07:39:16.047Z,13.13
2023-05-24T07:40:17.821Z,13.04
2023-05-24T07:41:19.647Z,13.00
2023-05-24T07:42:21.624Z,13.07
2023-05-24T07:43:23.495Z,13.03
2023-05-24T07:44:25.096Z,13.08
2023-05-24T07:45:26.776Z,13.07
2023-05-24T07:46:28.324Z,13.01
2023-05-24T07:47:29.976Z,12.86
2023-05-24T07:48:32.072Z,12.87
2023-05-24T07:49:33.639Z,12.84
2023-05-24T07:50:35.108Z,12.90
2023-05-24T07:51:36.912Z,12.92
2023-05-24T07:52:38.883Z,13.00
2023-05-24T07:53:40.587Z,12.98
2023-05-24T07:54:42.251Z,13.06
2023-05-24T07:55:44.748Z,13.10
2023-05-24T07:56:47.176Z,13.04
2023-05-24T07:57:48.759Z,12.88
2023-05-24T07:58:52.150Z,12.99
2023-05-24T07:59:53.894Z,12.98
2023-05-24T08:00:55.868Z,12.93
2023-05-24T08:02:04.022Z,12.73
2023-05-24T08:03:06.499Z,12.61
2023-05-24T08:04:09.890Z,12.80
2023-05-24T08:05:16.583Z,12.91
2023-05-24T08:06:19.158Z,12.96
2023-05-24T08:07:24.907Z,12.87
2023-05-24T08:08:26.489Z,12.80
2023-05-24T08:09:29.813Z,12.68
2023-05-24T08:10:31.339Z,12.69
2023-05-24T08:11:32.910Z,12.70
2023-05-24T08:12:34.406Z,12.60
2023-05-24T08:13:36.304Z,12.67
2023-05-24T08:14:37.887Z,12.54
2023-05-24T08:15:39.540Z,12.61
2023-05-24T08:16:41.211Z,12.56
2023-05-24T08:17:43.036Z,12.67
2023-05-24T08:18:44.898Z,12.70
2023-05-24T08:19:46.498Z,12.59
2023-05-24T08:20:48.062Z,12.48
2023-05-24T08:21:49.806Z,12.49
2023-05-24T08:22:52.093Z,12.36
2023-05-24T08:23:53.882Z,12.24
2023-05-24T08:24:55.530Z,12.17
2023-05-24T08:25:58.191Z,12.12
2023-05-24T08:26:59.749Z,12.15
2023-05-24T08:28:01.386Z,12.19
2023-05-24T08:29:04.990Z,12.27
2023-05-24T08:30:08.433Z,12.29
2023-05-24T08:31:10.226Z,12.30
2023-05-24T08:32:12.270Z,12.29
2023-05-24T08:33:14.222Z,12.44
2023-05-24T08:34:15.834Z,12.53
2023-05-24T08:35:21.580Z,12.48
2023-05-24T08:36:23.573Z,12.38
2023-05-24T08:37:25.267Z,12.41
2023-05-24T08:38:26.786Z,12.45
2023-05-24T08:39:28.273Z,12.69
2023-05-24T08:40:29.879Z,12.66
2023-05-24T08:41:37.341Z,12.72
2023-05-24T08:42:39.681Z,12.76
2023-05-24T08:43:43.496Z,12.87
2023-05-24T08:44:52.668Z,12.68
2023-05-24T08:45:59.084Z,12.62
2023-05-24T08:47:01.118Z,12.55
2023-05-24T08:48:04.042Z,12.47
2023-05-24T08:49:05.732Z,12.43
2023-05-24T08:50:08.752Z,12.27
2023-05-24T08:51:11.046Z,12.20
2023-05-24T08:52:12.807Z,12.26
2023-05-24T08:53:15.139Z,12.25
2023-05-24T08:54:16.822Z,12.25
2023-05-24T08:55:19.455Z,12.30
2023-05-24T08:56:22.280Z,12.25
2023-05-24T08:57:32.766Z,12.32
2023-05-24T08:58:35.112Z,12.39
2023-05-24T08:59:36.910Z,12.41
2023-05-24T09:00:38.529Z,12.30
2023-05-24T09:01:41.578Z,12.39
2023-05-24T09:02:44.760Z,12.46
2023-05-24T09:03:47.443Z,12.43
2023-05-24T09:04:50.665Z,12.53
2023-05-24T09:05:52.788Z,12.50
2023-05-24T09:06:56.520Z,12.72
2023-05-24T09:08:01.154Z,12.66
2023-05-24T09:09:03.863Z,12.61
2023-05-24T09:10:07.740Z,12.59
2023-05-24T09:11:09.701Z,12.46
2023-05-24T09:12:21.861Z,12.70
2023-05-24T09:13:31.827Z,12.65
2023-05-24T09:14:34.208Z,12.55
2023-05-24T09:15:36.381Z,12.79
2023-05-24T09:16:38.650Z,12.81
2023-05-24T09:17:52.260Z,12.87
2023-05-24T09:19:04.814Z,12.92
2023-05-24T09:20:09.090Z,12.96
2023-05-24T09:21:11.729Z,12.90
2023-05-24T09:22:14.518Z,12.68
2023-05-24T09:23:17.114Z,12.74
2023-05-24T09:24:18.651Z,12.73
2023-05-24T09:25:21.511Z,12.83
2023-05-24T09:26:24.849Z,12.95
2023-05-24T09:27:26.577Z,12.86
2023-05-24T09:28:32.942Z,12.86
2023-05-24T09:29:37.984Z,12.76
2023-05-24T09:30:39.544Z,12.78
2023-05-24T09:31:41.571Z,12.84
2023-05-24T09:32:57.894Z,13.00
2023-05-24T09:34:00.038Z,13.11
2023-05-24T09:35:02.201Z,13.22
2023-05-24T09:36:05.361Z,13.25
2023-05-24T09:37:13.447Z,13.21
2023-05-24T09:38:19.605Z,13.11
2023-05-24T09:39:21.478Z,13.18
2023-05-24T09:40:23.739Z,13.31
2023-05-24T09:41:25.549Z,13.38
2023-05-24T09:42:28.772Z,13.41
2023-05-24T09:43:33.231Z,13.39
2023-05-24T09:44:34.726Z,13.41
2023-05-24T09:45:47.210Z,13.47
2023-05-24T09:46:49.155Z,13.34
2023-05-24T09:47:53.011Z,13.38
2023-05-24T09:49:03.831Z,13.51
2023-05-24T09:50:11.710Z,13.53
2023-05-24T09:51:14.145Z,13.57
2023-05-24T09:52:16.540Z,13.58
2023-05-24T09:53:19.667Z,13.50
2023-05-24T09:54:21.203Z,13.50
2023-05-24T09:55:23.684Z,13.39
2023-05-24T09:56:26.719Z,13.42
2023-05-24T09:57:28.647Z,13.55
2023-05-24T09:58:33.814Z,13.74
2023-05-24T09:59:35.472Z,13.80
2023-05-24T10:00:41.388Z,13.89
2023-05-24T10:01:43.801Z,14.02
2023-05-24T10:02:53.435Z,14.14
2023-05-24T10:03:57.815Z,14.12
2023-05-24T10:05:02.849Z,14.22
2023-05-24T10:06:07.753Z,14.19
2023-05-24T10:07:10.331Z,14.21
2023-05-24T10:08:12.369Z,14.38
2023-05-24T10:09:14.528Z,14.44
2023-05-24T10:10:16.160Z,14.46
2023-05-24T10:11:18.969Z,14.34
2023-05-24T10:12:23.383Z,14.44
2023-05-24T10:13:26.775Z,14.54
2023-05-24T10:14:31.677Z,14.60
2023-05-24T10:15:33.165Z,14.46
2023-05-24T10:16:36.338Z,14.67
2023-05-24T10:17:38.197Z,14.91
2023-05-24T10:18:40.009Z,15.14
2023-05-24T10:19:42.119Z,15.20
2023-05-24T10:20:45.250Z,15.33
2023-05-24T10:21:49.476Z,15.58
2023-05-24T10:22:59.956Z,15.62
2023-05-24T10:24:03.826Z,15.48
2023-05-24T10:25:08.739Z,15.47
2023-05-24T10:26:12.650Z,15.36
2023-05-24T10:27:19.313Z,15.60
2023-05-24T10:28:23.656Z,15.75
2023-05-24T10:29:45.372Z,15.81
2023-05-24T10:31:04.758Z,16.13
2023-05-24T10:32:06.774Z,16.34
2023-05-24T10:33:09.529Z,16.32
2023-05-24T10:34:12.038Z,16.47
2023-05-24T10:35:15.123Z,16.40
2023-05-24T10:36:16.788Z,16.15
2023-05-24T10:37:18.378Z,16.23
2023-05-24T10:38:24.898Z,16.17
2023-05-24T10:39:26.936Z,16.27
2023-05-24T10:40:29.049Z,16.63
2023-05-24T10:41:39.785Z,16.66
2023-05-24T10:42:43.622Z,16.49
2023-05-24T10:44:00.955Z,16.43
2023-05-24T10:45:27.757Z,16.33
2023-05-24T10:46:29.475Z,16.35
2023-05-24T10:47:31.857Z,16.42
2023-05-24T10:48:36.323Z,16.54
2023-05-24T10:49:49.213Z,16.61
2023-05-24T10:50:51.193Z,16.62
2023-05-24T10:52:02.228Z,16.39
2023-05-24T10:53:19.214Z,16.58
2023-05-24T10:54:27.155Z,16.47
2023-05-24T10:55:28.729Z,16.51
2023-05-24T10:56:30.277Z,16.43
2023-05-24T10:57:33.147Z,16.32
2023-05-24T10:58:35.758Z,16.32
2023-05-24T10:59:39.424Z,16.52
2023-05-24T11:00:45.923Z,16.62
2023-05-24T11:01:55.541Z,16.51
2023-05-24T11:03:08.624Z,16.32
2023-05-24T11:04:12.670Z,16.10
2023-05-24T11:05:15.417Z,16.10
2023-05-24T11:06:18.005Z,16.24
2023-05-24T11:07:19.764Z,16.47
2023-05-24T11:08:26.306Z,16.45
2023-05-24T11:09:28.451Z,16.54
2023-05-24T11:10:31.331Z,16.52
2023-05-24T11:11:32.729Z,16.52
2023-05-24T11:12:38.673Z,16.49
2023-05-24T11:13:41.330Z,16.66
2023-05-24T11:14:51.308Z,16.75
2023-05-24T11:15:53.541Z,16.62
2023-05-24T11:16:56.126Z,16.69
2023-05-24T11:18:09.896Z,16.93
2023-05-24T11:19:35.917Z,17.13
2023-05-24T11:20:37.764Z,16.92
2023-05-24T11:21:41.330Z,17.13
2023-05-24T11:22:42.908Z,17.11
2023-05-24T11:23:44.468Z,17.21
2023-05-24T11:24:47.440Z,17.24
2023-05-24T11:25:49.389Z,17.24
2023-05-24T11:26:51.871Z,17.32
2023-05-24T11:27:53.796Z,17.45
2023-05-24T11:28:55.981Z,17.78
2023-05-24T11:29:59.059Z,17.76
2023-05-24T11:31:08.521Z,18.04
2023-05-24T11:32:15.741Z,18.34
2023-05-24T11:33:18.883Z,18.34
2023-05-24T11:34:21.909Z,18.60
2023-05-24T11:35:27.735Z,18.84
2023-05-24T11:36:30.053Z,18.66
2023-05-24T11:37:45.546Z,18.48
2023-05-24T11:38:49.905Z,18.47
2023-05-24T11:39:53.203Z,18.43
2023-05-24T11:40:54.767Z,18.52
2023-05-24T11:41:56.888Z,18.43
2023-05-24T11:42:58.651Z,18.59
2023-05-24T11:44:00.162Z,18.50
2023-05-24T11:45:02.081Z,18.86
2023-05-24T11:46:06.525Z,18.82
2023-05-24T11:47:08.764Z,19.12
2023-05-24T11:48:11.368Z,19.21
2023-05-24T11:49:17.142Z,19.26
2023-05-24T11:50:26.677Z,18.97
2023-05-24T11:51:31.565Z,18.73
2023-05-24T11:52:33.209Z,19.08
2023-05-24T11:53:35.355Z,19.01
2023-05-24T11:54:44.634Z,19.07
2023-05-24T11:55:59.290Z,19.48
2023-05-24T11:57:15.570Z,19.76
2023-05-24T11:58:20.580Z,19.78
2023-05-24T11:59:31.074Z,19.80
2023-05-24T12:00:39.617Z,19.21
2023-05-24T12:01:42.697Z,19.21
2023-05-24T12:02:46.955Z,18.98
2023-05-24T12:03:56.147Z,19.45
2023-05-24T12:05:12.969Z,19.54
2023-05-24T12:06:18.632Z,19.69
2023-05-24T12:07:30.394Z,20.01
2023-05-24T12:08:32.222Z,20.18
2023-05-24T12:09:33.871Z,19.90
2023-05-24T12:10:37.335Z,19.74
2023-05-24T12:11:43.036Z,20.32
2023-05-24T12:12:46.267Z,20.14
2023-05-24T12:13:48.164Z,20.29
2023-05-24T12:14:49.684Z,20.28
2023-05-24T12:15:56.615Z,19.99
2023-05-24T12:16:59.396Z,19.78
2023-05-24T12:18:01.149Z,19.68
2023-05-24T12:19:09.455Z,19.54
2023-05-24T12:20:14.304Z,19.23
2023-05-24T12:21:16.488Z,19.18
2023-05-24T12:22:17.973Z,19.35
2023-05-24T12:23:23.255Z,19.41
2023-05-24T12:24:26.346Z,19.23
2023-05-24T12:25:27.846Z,19.11
2023-05-24T12:26:29.696Z,18.98
2023-05-24T12:27:31.500Z,19.12
2023-05-24T12:28:39.116Z,19.09
2023-05-24T12:29:42.395Z,19.37
2023-05-24T12:30:45.192Z,19.41
2023-05-24T12:31:50.133Z,19.39
2023-05-24T12:32:54.349Z,19.60
2023-05-24T12:33:55.959Z,19.57
2023-05-24T12:34:57.496Z,19.62
2023-05-24T12:35:59.629Z,19.77
2023-05-24T12:37:02.519Z,19.95
2023-05-24T12:38:03.975Z,20.02
2023-05-24T12:39:32.160Z,20.17
2023-05-24T12:40:33.807Z,20.06
2023-05-24T12:41:35.626Z,19.85
2023-05-24T12:42:37.256Z,19.65
2023-05-24T12:43:39.553Z,19.81
2023-05-24T12:44:41.972Z,20.03
2023-05-24T12:45:43.905Z,20.20
2023-05-24T12:46:45.852Z,20.26
2023-05-24T12:47:48.185Z,20.09
2023-05-24T12:48:49.721Z,20.17
2023-05-24T12:49:51.235Z,20.08
2023-05-24T12:50:52.753Z,20.30
2023-05-24T12:51:56.003Z,20.20
2023-05-24T12:52:57.800Z,20.19
2023-05-24T12:53:59.292Z,20.46
2023-05-24T12:55:00.824Z,20.26
2023-05-24T12:56:02.527Z,20.17
2023-05-24T12:57:04.726Z,20.43
2023-05-24T12:58:08.190Z,20.53
2023-05-24T12:59:09.712Z,20.56
2023-05-24T13:00:11.857Z,20.29
2023-05-24T13:01:13.505Z,20.65
2023-05-24T13:02:15.088Z,20.50
2023-05-24T13:03:16.746Z,19.90
2023-05-24T13:04:21.146Z,19.41
2023-05-24T13:05:24.277Z,19.30
2023-05-24T13:06:25.858Z,19.32
2023-05-24T13:07:27.624Z,19.02
2023-05-24T13:08:30.177Z,18.76
2023-05-24T13:09:33.288Z,18.82
2023-05-24T13:10:35.428Z,19.25
2023-05-24T13:11:36.971Z,19.39
2023-05-24T13:12:39.252Z,19.42
2023-05-24T13:13:40.815Z,19.34
2023-05-24T13:14:42.534Z,19.24
2023-05-24T13:15:44.633Z,19.04
2023-05-24T13:16:46.766Z,19.11
2023-05-24T13:17:49.116Z,19.16
2023-05-24T13:18:50.760Z,19.30
2023-05-24T13:19:52.459Z,19.48
2023-05-24T13:20:54.298Z,19.93
2023-05-24T13:21:55.849Z,20.23
2023-05-24T13:22:57.342Z,20.60
2023-05-24T13:23:59.341Z,20.61
2023-05-24T13:25:02.654Z,20.65
2023-05-24T13:26:04.350Z,20.78
2023-05-24T13:27:07.150Z,20.91
2023-05-24T13:28:08.721Z,21.16
2023-05-24T13:30:15.091Z,21.37
2023-05-24T13:31:17.329Z,21.61
2023-05-24T13:32:18.873Z,21.28
2023-05-24T13:33:20.511Z,21.31
2023-05-24T13:34:24.672Z,21.39
2023-05-24T13:35:26.250Z,21.53
2023-05-24T13:36:27.817Z,21.18
2023-05-24T13:37:29.918Z,21.18
2023-05-24T13:38:34.682Z,20.87
2023-05-24T13:39:37.055Z,20.83